sensor_id;sensor_type;location;lat;lon;timestamp;temperature;humidity
15152;DHT22;7676;50.900;6.234;2023-08-07T00:01:01;12.10;99.90
15152;DHT22;7676;50.900;6.234;2023-08-07T00:16:07;12.10;99.90
15152;DHT22;7676;50.900;6.234;2023-08-07T00:31:10;12.20;99.90
15152;DHT22;7676;50.900;6.234;2023-08-07T00:46:14;12.10;99.90
15152;DHT22;7676;50.900;6.234;2023-08-07T01:01:20;12.20;99.90
15152;DHT22;7676;50.900;6.234;2023-08-07T01:16:35;13.10;99.90
15152;DHT22;7676;50.900;6.234;2023-08-07T01:31:40;12.10;99.90
15152;DHT22;7676;50.900;6.234;2023-08-07T01:46:49;12.10;99.90
15152;DHT22;7676;50.900;6.234;2023-08-07T02:01:53;12.20;99.90
15152;DHT22;7676;50.900;6.234;2023-08-07T02:16:56;12.10;99.90
15152;DHT22;7676;50.900;6.234;2023-08-07T02:32:00;12.30;99.90
15152;DHT22;7676;50.900;6.234;2023-08-07T02:47:04;11.90;99.90
15152;DHT22;7676;50.900;6.234;2023-08-07T03:02:09;12.00;99.90
15152;DHT22;7676;50.900;6.234;2023-08-07T03:17:12;11.80;99.90
15152;DHT22;7676;50.900;6.234;2023-08-07T03:32:18;11.80;99.90
15152;DHT22;7676;50.900;6.234;2023-08-07T03:47:23;11.80;99.90
15152;DHT22;7676;50.900;6.234;2023-08-07T04:02:27;11.60;99.90
15152;DHT22;7676;50.900;6.234;2023-08-07T04:17:32;11.70;99.90
15152;DHT22;7676;50.900;6.234;2023-08-07T04:32:37;11.60;99.90
15152;DHT22;7676;50.900;6.234;2023-08-07T04:47:42;11.40;99.90
15152;DHT22;7676;50.900;6.234;2023-08-07T05:02:48;11.40;99.90
15152;DHT22;7676;50.900;6.234;2023-08-07T05:17:52;11.40;99.90
15152;DHT22;7676;50.900;6.234;2023-08-07T05:32:55;11.60;99.90
15152;DHT22;7676;50.900;6.234;2023-08-07T05:48:01;11.60;99.90
15152;DHT22;7676;50.900;6.234;2023-08-07T06:03:04;11.50;99.90
15152;DHT22;7676;50.900;6.234;2023-08-07T06:18:07;11.50;99.90
15152;DHT22;7676;50.900;6.234;2023-08-07T06:33:12;11.60;99.90
15152;DHT22;7676;50.900;6.234;2023-08-07T06:48:16;11.70;99.90
15152;DHT22;7676;50.900;6.234;2023-08-07T07:03:22;12.00;99.90
15152;DHT22;7676;50.900;6.234;2023-08-07T07:18:39;12.00;99.90
15152;DHT22;7676;50.900;6.234;2023-08-07T07:33:46;12.20;99.90
15152;DHT22;7676;50.900;6.234;2023-08-07T07:49:05;12.30;99.90
15152;DHT22;7676;50.900;6.234;2023-08-07T08:04:17;12.70;99.90
15152;DHT22;7676;50.900;6.234;2023-08-07T08:19:34;13.10;99.90
15152;DHT22;7676;50.900;6.234;2023-08-07T08:34:56;13.60;99.90
15152;DHT22;7676;50.900;6.234;2023-08-07T08:50:09;13.70;99.90
15152;DHT22;7676;50.900;6.234;2023-08-07T09:05:21;14.40;99.90
15152;DHT22;7676;50.900;6.234;2023-08-07T09:20:27;14.30;99.90
15152;DHT22;7676;50.900;6.234;2023-08-07T09:35:35;15.20;99.90
15152;DHT22;7676;50.900;6.234;2023-08-07T09:50:40;14.80;99.90
15152;DHT22;7676;50.900;6.234;2023-08-07T10:05:51;15.30;99.90
15152;DHT22;7676;50.900;6.234;2023-08-07T10:21:08;15.10;99.90
15152;DHT22;7676;50.900;6.234;2023-08-07T10:36:16;15.10;99.90
15152;DHT22;7676;50.900;6.234;2023-08-07T10:51:28;16.30;99.90
15152;DHT22;7676;50.900;6.234;2023-08-07T11:06:36;16.30;99.90
15152;DHT22;7676;50.900;6.234;2023-08-07T11:21:40;17.30;99.90
15152;DHT22;7676;50.900;6.234;2023-08-07T11:36:46;18.10;99.90
15152;DHT22;7676;50.900;6.234;2023-08-07T11:51:57;18.30;99.90
15152;DHT22;7676;50.900;6.234;2023-08-07T12:07:02;18.50;99.90
15152;DHT22;7676;50.900;6.234;2023-08-07T12:22:10;18.30;99.90
15152;DHT22;7676;50.900;6.234;2023-08-07T12:37:16;18.60;99.90
15152;DHT22;7676;50.900;6.234;2023-08-07T12:52:20;18.80;99.90
15152;DHT22;7676;50.900;6.234;2023-08-07T13:07:37;18.20;99.90
15152;DHT22;7676;50.900;6.234;2023-08-07T13:22:43;18.40;99.90
15152;DHT22;7676;50.900;6.234;2023-08-07T13:37:54;18.00;99.90
15152;DHT22;7676;50.900;6.234;2023-08-07T13:52:58;17.40;99.90
15152;DHT22;7676;50.900;6.234;2023-08-07T14:08:19;18.40;99.90
15152;DHT22;7676;50.900;6.234;2023-08-07T14:38:40;18.90;99.90
15152;DHT22;7676;50.900;6.234;2023-08-07T14:53:43;19.20;99.90
15152;DHT22;7676;50.900;6.234;2023-08-07T15:08:46;18.50;99.90
15152;DHT22;7676;50.900;6.234;2023-08-07T15:23:49;18.70;99.90
15152;DHT22;7676;50.900;6.234;2023-08-07T15:38:54;18.60;99.90
15152;DHT22;7676;50.900;6.234;2023-08-07T15:53:58;18.70;99.90
15152;DHT22;7676;50.900;6.234;2023-08-07T16:09:01;18.40;99.90
15152;DHT22;7676;50.900;6.234;2023-08-07T16:24:04;18.20;99.90
15152;DHT22;7676;50.900;6.234;2023-08-07T16:39:07;18.30;99.90
15152;DHT22;7676;50.900;6.234;2023-08-07T16:54:09;18.10;99.90
15152;DHT22;7676;50.900;6.234;2023-08-07T17:09:12;18.00;99.90
15152;DHT22;7676;50.900;6.234;2023-08-07T17:24:18;18.10;99.90
15152;DHT22;7676;50.900;6.234;2023-08-07T17:39:21;18.00;99.90
15152;DHT22;7676;50.900;6.234;2023-08-07T17:54:23;17.70;99.90
15152;DHT22;7676;50.900;6.234;2023-08-07T18:09:26;17.60;99.90
15152;DHT22;7676;50.900;6.234;2023-08-07T18:24:29;17.60;99.90
15152;DHT22;7676;50.900;6.234;2023-08-07T18:39:32;17.50;99.90
15152;DHT22;7676;50.900;6.234;2023-08-07T18:54:34;17.50;99.90
15152;DHT22;7676;50.900;6.234;2023-08-07T19:09:37;17.10;99.90
15152;DHT22;7676;50.900;6.234;2023-08-07T19:24:40;17.10;99.90
15152;DHT22;7676;50.900;6.234;2023-08-07T19:39:43;16.90;99.90
15152;DHT22;7676;50.900;6.234;2023-08-07T19:54:45;16.90;99.90
15152;DHT22;7676;50.900;6.234;2023-08-07T20:09:49;17.10;99.90
15152;DHT22;7676;50.900;6.234;2023-08-07T20:24:53;17.10;99.90
15152;DHT22;7676;50.900;6.234;2023-08-07T20:39:56;17.20;99.90
15152;DHT22;7676;50.900;6.234;2023-08-07T20:54:59;17.30;99.90
15152;DHT22;7676;50.900;6.234;2023-08-07T21:10:02;17.20;99.90
15152;DHT22;7676;50.900;6.234;2023-08-07T21:25:05;16.90;99.90
15152;DHT22;7676;50.900;6.234;2023-08-07T21:40:10;16.90;99.90
15152;DHT22;7676;50.900;6.234;2023-08-07T21:55:12;16.50;99.90
15152;DHT22;7676;50.900;6.234;2023-08-07T22:10:15;16.20;99.90
15152;DHT22;7676;50.900;6.234;2023-08-07T22:25:18;16.20;99.90
15152;DHT22;7676;50.900;6.234;2023-08-07T22:40:21;15.70;99.90
15152;DHT22;7676;50.900;6.234;2023-08-07T22:55:24;15.70;99.90
15152;DHT22;7676;50.900;6.234;2023-08-07T23:10:27;15.60;99.90
15152;DHT22;7676;50.900;6.234;2023-08-07T23:25:29;15.60;99.90
15152;DHT22;7676;50.900;6.234;2023-08-07T23:40:37;15.20;99.90
15152;DHT22;7676;50.900;6.234;2023-08-07T23:55:40;15.20;99.90
